sensor_id;sensor_type;location;lat;lon;timestamp;temperature;humidity
20442;DHT22;10380;52.102;20.614;2022-12-18T00:01:34;-3.40;99.90
20442;DHT22;10380;52.102;20.614;2022-12-18T00:04:05;-3.40;99.90
20442;DHT22;10380;52.102;20.614;2022-12-18T00:06:33;-3.30;99.90
20442;DHT22;10380;52.102;20.614;2022-12-18T00:09:03;-3.30;99.90
20442;DHT22;10380;52.102;20.614;2022-12-18T00:11:32;-3.30;99.90
20442;DHT22;10380;52.102;20.614;2022-12-18T00:13:59;-3.30;99.90
20442;DHT22;10380;52.102;20.614;2022-12-18T00:16:28;-3.00;99.90
20442;DHT22;10380;52.102;20.614;2022-12-18T00:18:58;-3.10;99.90
20442;DHT22;10380;52.102;20.614;2022-12-18T00:21:32;-3.20;99.90
20442;DHT22;10380;52.102;20.614;2022-12-18T00:24:02;-3.20;99.90
20442;DHT22;10380;52.102;20.614;2022-12-18T00:26:31;-3.20;99.90
20442;DHT22;10380;52.102;20.614;2022-12-18T00:29:10;-3.20;99.90
20442;DHT22;10380;52.102;20.614;2022-12-18T00:31:39;-3.20;99.90
20442;DHT22;10380;52.102;20.614;2022-12-18T00:34:06;-3.20;99.90
20442;DHT22;10380;52.102;20.614;2022-12-18T00:36:35;-3.20;99.90
20442;DHT22;10380;52.102;20.614;2022-12-18T00:39:04;-3.20;99.90
20442;DHT22;10380;52.102;20.614;2022-12-18T00:41:48;-3.20;99.90
20442;DHT22;10380;52.102;20.614;2022-12-18T00:44:41;-3.20;99.90
20442;DHT22;10380;52.102;20.614;2022-12-18T00:47:08;-3.20;99.90
20442;DHT22;10380;52.102;20.614;2022-12-18T00:49:37;-3.10;99.90
20442;DHT22;10380;52.102;20.614;2022-12-18T00:52:06;-3.10;99.90
20442;DHT22;10380;52.102;20.614;2022-12-18T00:54:34;-3.10;99.90
20442;DHT22;10380;52.102;20.614;2022-12-18T00:57:04;-3.10;99.90
20442;DHT22;10380;52.102;20.614;2022-12-18T00:59:30;-3.10;99.90
20442;DHT22;10380;52.102;20.614;2022-12-18T01:01:59;-3.10;99.90
20442;DHT22;10380;52.102;20.614;2022-12-18T01:04:33;-3.10;99.90
20442;DHT22;10380;52.102;20.614;2022-12-18T01:07:00;-3.10;99.90
20442;DHT22;10380;52.102;20.614;2022-12-18T01:09:28;-3.10;99.90
20442;DHT22;10380;52.102;20.614;2022-12-18T01:12:02;-3.10;99.90
20442;DHT22;10380;52.102;20.614;2022-12-18T01:14:29;-3.00;99.90
20442;DHT22;10380;52.102;20.614;2022-12-18T01:16:58;-3.10;99.90
20442;DHT22;10380;52.102;20.614;2022-12-18T01:19:26;-3.10;99.90
20442;DHT22;10380;52.102;20.614;2022-12-18T01:21:53;-3.00;99.90
20442;DHT22;10380;52.102;20.614;2022-12-18T01:24:20;-3.00;99.90
20442;DHT22;10380;52.102;20.614;2022-12-18T01:26:47;-3.00;99.90
20442;DHT22;10380;52.102;20.614;2022-12-18T01:29:15;-3.10;99.90
20442;DHT22;10380;52.102;20.614;2022-12-18T01:31:49;-3.00;99.90
20442;DHT22;10380;52.102;20.614;2022-12-18T01:34:18;-3.00;99.90
20442;DHT22;10380;52.102;20.614;2022-12-18T01:36:52;-3.00;99.90
20442;DHT22;10380;52.102;20.614;2022-12-18T01:39:19;-3.00;99.90
20442;DHT22;10380;52.102;20.614;2022-12-18T01:41:46;-3.00;99.90
20442;DHT22;10380;52.102;20.614;2022-12-18T01:44:58;-3.00;99.90
20442;DHT22;10380;52.102;20.614;2022-12-18T01:50:10;-3.00;99.90
20442;DHT22;10380;52.102;20.614;2022-12-18T01:52:45;-3.10;99.90
20442;DHT22;10380;52.102;20.614;2022-12-18T01:55:22;-3.10;99.90
20442;DHT22;10380;52.102;20.614;2022-12-18T01:57:59;-3.10;99.90
20442;DHT22;10380;52.102;20.614;2022-12-18T02:00:28;-3.10;99.90
20442;DHT22;10380;52.102;20.614;2022-12-18T02:02:56;-3.10;99.90
20442;DHT22;10380;52.102;20.614;2022-12-18T02:08:33;-3.20;99.90
20442;DHT22;10380;52.102;20.614;2022-12-18T02:22:43;-3.30;99.90
20442;DHT22;10380;52.102;20.614;2022-12-18T02:27:52;-3.30;99.90
20442;DHT22;10380;52.102;20.614;2022-12-18T02:30:22;-3.30;99.90
20442;DHT22;10380;52.102;20.614;2022-12-18T02:32:52;-3.30;99.90
20442;DHT22;10380;52.102;20.614;2022-12-18T02:35:25;-3.40;99.90
20442;DHT22;10380;52.102;20.614;2022-12-18T02:37:57;-3.40;99.90
20442;DHT22;10380;52.102;20.614;2022-12-18T02:40:30;-3.40;99.90
20442;DHT22;10380;52.102;20.614;2022-12-18T02:43:08;-3.40;99.90
20442;DHT22;10380;52.102;20.614;2022-12-18T02:45:46;-3.40;99.90
20442;DHT22;10380;52.102;20.614;2022-12-18T02:48:17;-3.40;99.90
20442;DHT22;10380;52.102;20.614;2022-12-18T02:51:21;-3.40;99.90
20442;DHT22;10380;52.102;20.614;2022-12-18T02:53:56;-3.30;99.90
20442;DHT22;10380;52.102;20.614;2022-12-18T02:56:30;-3.30;99.90
20442;DHT22;10380;52.102;20.614;2022-12-18T02:59:30;-3.30;99.90
20442;DHT22;10380;52.102;20.614;2022-12-18T03:02:07;-3.30;99.90
20442;DHT22;10380;52.102;20.614;2022-12-18T03:07:50;-3.30;99.90
20442;DHT22;10380;52.102;20.614;2022-12-18T03:10:25;-3.40;99.90
20442;DHT22;10380;52.102;20.614;2022-12-18T03:13:08;-3.40;99.90
20442;DHT22;10380;52.102;20.614;2022-12-18T03:15:46;-3.40;99.90
20442;DHT22;10380;52.102;20.614;2022-12-18T03:18:25;-3.40;99.90
20442;DHT22;10380;52.102;20.614;2022-12-18T03:20:55;-3.40;99.90
20442;DHT22;10380;52.102;20.614;2022-12-18T03:23:29;-3.40;99.90
20442;DHT22;10380;52.102;20.614;2022-12-18T03:26:07;-3.40;99.90
20442;DHT22;10380;52.102;20.614;2022-12-18T03:28:42;-3.40;99.90
20442;DHT22;10380;52.102;20.614;2022-12-18T03:31:12;-3.40;99.90
20442;DHT22;10380;52.102;20.614;2022-12-18T03:33:53;-3.40;99.90
20442;DHT22;10380;52.102;20.614;2022-12-18T03:36:26;-3.40;99.90
20442;DHT22;10380;52.102;20.614;2022-12-18T03:38:55;-3.40;99.90
20442;DHT22;10380;52.102;20.614;2022-12-18T03:41:28;-3.40;99.90
20442;DHT22;10380;52.102;20.614;2022-12-18T03:52:28;-3.40;99.90
20442;DHT22;10380;52.102;20.614;2022-12-18T03:54:59;-3.40;99.90
20442;DHT22;10380;52.102;20.614;2022-12-18T03:57:30;-3.50;99.90
20442;DHT22;10380;52.102;20.614;2022-12-18T04:00:08;-3.40;99.90
20442;DHT22;10380;52.102;20.614;2022-12-18T04:02:37;-3.50;99.90
20442;DHT22;10380;52.102;20.614;2022-12-18T04:05:14;-3.50;99.90
20442;DHT22;10380;52.102;20.614;2022-12-18T04:07:43;-3.40;99.90
20442;DHT22;10380;52.102;20.614;2022-12-18T04:10:18;-3.40;99.90
20442;DHT22;10380;52.102;20.614;2022-12-18T04:12:45;-3.40;99.90
20442;DHT22;10380;52.102;20.614;2022-12-18T04:15:16;-3.50;99.90
20442;DHT22;10380;52.102;20.614;2022-12-18T04:17:49;-3.50;99.90
20442;DHT22;10380;52.102;20.614;2022-12-18T04:20:18;-3.50;99.90
20442;DHT22;10380;52.102;20.614;2022-12-18T04:22:48;-3.50;99.90
20442;DHT22;10380;52.102;20.614;2022-12-18T04:25:15;-3.50;99.90
20442;DHT22;10380;52.102;20.614;2022-12-18T04:27:52;-3.50;99.90
20442;DHT22;10380;52.102;20.614;2022-12-18T04:30:19;-3.50;99.90
20442;DHT22;10380;52.102;20.614;2022-12-18T04:32:46;-3.50;99.90
20442;DHT22;10380;52.102;20.614;2022-12-18T04:35:21;-3.50;99.90
20442;DHT22;10380;52.102;20.614;2022-12-18T04:37:50;-3.50;99.90
20442;DHT22;10380;52.102;20.614;2022-12-18T04:40:24;-3.50;99.90
20442;DHT22;10380;52.102;20.614;2022-12-18T04:42:51;-3.50;99.90
20442;DHT22;10380;52.102;20.614;2022-12-18T04:45:21;-3.50;99.90
20442;DHT22;10380;52.102;20.614;2022-12-18T04:48:05;-3.50;99.90
20442;DHT22;10380;52.102;20.614;2022-12-18T04:50:35;-3.50;99.90
20442;DHT22;10380;52.102;20.614;2022-12-18T04:53:14;-3.60;99.90
20442;DHT22;10380;52.102;20.614;2022-12-18T04:55:47;-3.60;99.90
20442;DHT22;10380;52.102;20.614;2022-12-18T04:58:14;-3.60;99.90
20442;DHT22;10380;52.102;20.614;2022-12-18T05:00:48;-3.60;99.90
20442;DHT22;10380;52.102;20.614;2022-12-18T05:03:14;-3.60;99.90
20442;DHT22;10380;52.102;20.614;2022-12-18T05:05:44;-3.60;99.90
20442;DHT22;10380;52.102;20.614;2022-12-18T05:08:11;-3.70;99.90
20442;DHT22;10380;52.102;20.614;2022-12-18T05:10:40;-3.70;99.90
20442;DHT22;10380;52.102;20.614;2022-12-18T05:13:10;-3.70;99.90
20442;DHT22;10380;52.102;20.614;2022-12-18T05:15:38;-3.70;99.90
20442;DHT22;10380;52.102;20.614;2022-12-18T05:18:07;-3.70;99.90
20442;DHT22;10380;52.102;20.614;2022-12-18T05:20:37;-3.70;99.90
20442;DHT22;10380;52.102;20.614;2022-12-18T05:23:07;-3.70;99.90
20442;DHT22;10380;52.102;20.614;2022-12-18T05:25:37;-3.70;99.90
20442;DHT22;10380;52.102;20.614;2022-12-18T05:28:06;-3.70;99.90
20442;DHT22;10380;52.102;20.614;2022-12-18T05:30:34;-3.70;99.90
20442;DHT22;10380;52.102;20.614;2022-12-18T05:33:01;-3.70;99.90
20442;DHT22;10380;52.102;20.614;2022-12-18T05:35:27;-3.80;99.90
20442;DHT22;10380;52.102;20.614;2022-12-18T05:38:02;-3.80;99.90
20442;DHT22;10380;52.102;20.614;2022-12-18T05:40:29;-3.80;99.90
20442;DHT22;10380;52.102;20.614;2022-12-18T05:42:59;-3.70;99.90
20442;DHT22;10380;52.102;20.614;2022-12-18T05:45:28;-3.80;99.90
20442;DHT22;10380;52.102;20.614;2022-12-18T05:48:02;-3.80;99.90
20442;DHT22;10380;52.102;20.614;2022-12-18T05:50:29;-3.80;99.90
20442;DHT22;10380;52.102;20.614;2022-12-18T05:52:56;-3.70;99.90
20442;DHT22;10380;52.102;20.614;2022-12-18T05:55:26;-3.80;99.90
20442;DHT22;10380;52.102;20.614;2022-12-18T05:57:54;-3.80;99.90
20442;DHT22;10380;52.102;20.614;2022-12-18T06:00:27;-3.80;99.90
20442;DHT22;10380;52.102;20.614;2022-12-18T06:02:54;-3.80;99.90
20442;DHT22;10380;52.102;20.614;2022-12-18T06:05:24;-3.80;99.90
20442;DHT22;10380;52.102;20.614;2022-12-18T06:07:51;-3.80;99.90
20442;DHT22;10380;52.102;20.614;2022-12-18T06:10:19;-3.80;99.90
20442;DHT22;10380;52.102;20.614;2022-12-18T06:12:49;-3.80;99.90
20442;DHT22;10380;52.102;20.614;2022-12-18T06:15:18;-3.80;99.90
20442;DHT22;10380;52.102;20.614;2022-12-18T06:17:46;-3.80;99.90
20442;DHT22;10380;52.102;20.614;2022-12-18T06:20:17;-3.80;99.90
20442;DHT22;10380;52.102;20.614;2022-12-18T06:22:48;-3.80;99.90
20442;DHT22;10380;52.102;20.614;2022-12-18T06:25:15;-3.80;99.90
20442;DHT22;10380;52.102;20.614;2022-12-18T06:27:44;-3.70;99.90
20442;DHT22;10380;52.102;20.614;2022-12-18T06:30:18;-3.70;99.90
20442;DHT22;10380;52.102;20.614;2022-12-18T06:32:45;-3.70;99.90
20442;DHT22;10380;52.102;20.614;2022-12-18T06:35:35;-3.70;99.90
20442;DHT22;10380;52.102;20.614;2022-12-18T06:38:04;-3.70;99.90
20442;DHT22;10380;52.102;20.614;2022-12-18T06:40:31;-3.80;99.90
20442;DHT22;10380;52.102;20.614;2022-12-18T06:43:00;-3.80;99.90
20442;DHT22;10380;52.102;20.614;2022-12-18T06:45:30;-3.80;99.90
20442;DHT22;10380;52.102;20.614;2022-12-18T06:47:57;-3.80;99.90
20442;DHT22;10380;52.102;20.614;2022-12-18T06:50:24;-3.70;99.90
20442;DHT22;10380;52.102;20.614;2022-12-18T06:52:57;-3.80;99.90
20442;DHT22;10380;52.102;20.614;2022-12-18T06:55:36;-3.70;99.90
20442;DHT22;10380;52.102;20.614;2022-12-18T06:58:10;-3.80;99.90
20442;DHT22;10380;52.102;20.614;2022-12-18T07:00:45;-3.80;99.90
20442;DHT22;10380;52.102;20.614;2022-12-18T07:03:15;-3.90;99.90
20442;DHT22;10380;52.102;20.614;2022-12-18T07:05:42;-3.90;99.90
20442;DHT22;10380;52.102;20.614;2022-12-18T07:08:08;-3.90;99.90
20442;DHT22;10380;52.102;20.614;2022-12-18T07:10:43;-3.90;99.90
20442;DHT22;10380;52.102;20.614;2022-12-18T07:13:15;-3.90;99.90
20442;DHT22;10380;52.102;20.614;2022-12-18T07:15:43;-3.90;99.90
20442;DHT22;10380;52.102;20.614;2022-12-18T07:18:13;-3.90;99.90
20442;DHT22;10380;52.102;20.614;2022-12-18T07:20:40;-3.90;99.90
20442;DHT22;10380;52.102;20.614;2022-12-18T07:23:07;-3.90;99.90
20442;DHT22;10380;52.102;20.614;2022-12-18T07:25:36;-3.90;99.90
20442;DHT22;10380;52.102;20.614;2022-12-18T07:28:04;-3.80;99.90
20442;DHT22;10380;52.102;20.614;2022-12-18T07:30:31;-3.80;99.90
20442;DHT22;10380;52.102;20.614;2022-12-18T07:32:59;-3.80;99.90
20442;DHT22;10380;52.102;20.614;2022-12-18T07:35:25;-3.80;99.90
20442;DHT22;10380;52.102;20.614;2022-12-18T07:37:52;-3.80;99.90
20442;DHT22;10380;52.102;20.614;2022-12-18T07:40:19;-3.70;99.90
20442;DHT22;10380;52.102;20.614;2022-12-18T07:42:46;-3.70;99.90
20442;DHT22;10380;52.102;20.614;2022-12-18T07:45:14;-3.70;99.90
20442;DHT22;10380;52.102;20.614;2022-12-18T07:47:42;-3.70;99.90
20442;DHT22;10380;52.102;20.614;2022-12-18T07:50:15;-3.70;99.90
20442;DHT22;10380;52.102;20.614;2022-12-18T07:52:42;-3.60;99.90
20442;DHT22;10380;52.102;20.614;2022-12-18T07:55:08;-3.60;99.90
20442;DHT22;10380;52.102;20.614;2022-12-18T07:57:35;-3.60;99.90
20442;DHT22;10380;52.102;20.614;2022-12-18T08:00:22;-3.60;99.90
20442;DHT22;10380;52.102;20.614;2022-12-18T08:02:50;-3.60;99.90
20442;DHT22;10380;52.102;20.614;2022-12-18T08:05:18;-3.60;99.90
20442;DHT22;10380;52.102;20.614;2022-12-18T08:07:47;-3.60;99.90
20442;DHT22;10380;52.102;20.614;2022-12-18T08:10:14;-3.60;99.90
20442;DHT22;10380;52.102;20.614;2022-12-18T08:12:41;-3.70;99.90
20442;DHT22;10380;52.102;20.614;2022-12-18T08:15:08;-3.60;99.90
20442;DHT22;10380;52.102;20.614;2022-12-18T08:17:35;-3.50;99.90
20442;DHT22;10380;52.102;20.614;2022-12-18T08:20:02;-3.50;99.90
20442;DHT22;10380;52.102;20.614;2022-12-18T08:22:29;-3.50;99.90
20442;DHT22;10380;52.102;20.614;2022-12-18T08:24:58;-3.50;99.90
20442;DHT22;10380;52.102;20.614;2022-12-18T08:27:25;-3.60;99.90
20442;DHT22;10380;52.102;20.614;2022-12-18T08:29:56;-3.60;99.90
20442;DHT22;10380;52.102;20.614;2022-12-18T08:32:25;-3.60;99.90
20442;DHT22;10380;52.102;20.614;2022-12-18T08:34:52;-3.60;99.90
20442;DHT22;10380;52.102;20.614;2022-12-18T08:37:19;-3.60;99.90
20442;DHT22;10380;52.102;20.614;2022-12-18T08:39:46;-3.60;99.90
20442;DHT22;10380;52.102;20.614;2022-12-18T08:42:12;-3.60;99.90
20442;DHT22;10380;52.102;20.614;2022-12-18T08:44:58;-3.60;99.90
20442;DHT22;10380;52.102;20.614;2022-12-18T08:47:26;-3.60;99.90
20442;DHT22;10380;52.102;20.614;2022-12-18T08:49:53;-3.50;99.90
20442;DHT22;10380;52.102;20.614;2022-12-18T08:52:19;-3.50;99.90
20442;DHT22;10380;52.102;20.614;2022-12-18T08:54:46;-3.40;99.90
20442;DHT22;10380;52.102;20.614;2022-12-18T08:57:13;-3.40;99.90
20442;DHT22;10380;52.102;20.614;2022-12-18T08:59:40;-3.30;99.90
20442;DHT22;10380;52.102;20.614;2022-12-18T09:02:10;-3.30;99.90
20442;DHT22;10380;52.102;20.614;2022-12-18T09:04:37;-3.20;99.90
20442;DHT22;10380;52.102;20.614;2022-12-18T09:07:04;-3.10;99.90
20442;DHT22;10380;52.102;20.614;2022-12-18T09:09:31;-3.10;99.90
20442;DHT22;10380;52.102;20.614;2022-12-18T09:11:57;-3.00;99.90
20442;DHT22;10380;52.102;20.614;2022-12-18T09:14:24;-3.00;99.90
20442;DHT22;10380;52.102;20.614;2022-12-18T09:16:51;-2.90;99.90
20442;DHT22;10380;52.102;20.614;2022-12-18T09:19:18;-2.80;99.90
20442;DHT22;10380;52.102;20.614;2022-12-18T09:21:45;-2.80;99.90
20442;DHT22;10380;52.102;20.614;2022-12-18T09:24:14;-2.70;99.90
20442;DHT22;10380;52.102;20.614;2022-12-18T09:26:41;-2.70;99.90
20442;DHT22;10380;52.102;20.614;2022-12-18T09:29:12;-2.70;99.90
20442;DHT22;10380;52.102;20.614;2022-12-18T09:31:47;-2.70;99.90
20442;DHT22;10380;52.102;20.614;2022-12-18T09:34:14;-2.70;99.90
20442;DHT22;10380;52.102;20.614;2022-12-18T09:36:42;-2.70;99.90
20442;DHT22;10380;52.102;20.614;2022-12-18T09:39:09;-2.60;99.90
20442;DHT22;10380;52.102;20.614;2022-12-18T09:44:39;-2.60;99.90
20442;DHT22;10380;52.102;20.614;2022-12-18T09:47:34;-2.60;99.90
20442;DHT22;10380;52.102;20.614;2022-12-18T09:50:06;-2.60;99.90
20442;DHT22;10380;52.102;20.614;2022-12-18T09:52:50;-2.60;99.90
20442;DHT22;10380;52.102;20.614;2022-12-18T09:58:06;-2.50;99.90
20442;DHT22;10380;52.102;20.614;2022-12-18T10:00:34;-2.50;99.90
20442;DHT22;10380;52.102;20.614;2022-12-18T10:03:10;-2.60;99.90
20442;DHT22;10380;52.102;20.614;2022-12-18T10:05:51;-2.50;99.90
20442;DHT22;10380;52.102;20.614;2022-12-18T10:08:29;-2.50;99.90
20442;DHT22;10380;52.102;20.614;2022-12-18T10:19:48;-2.20;99.90
20442;DHT22;10380;52.102;20.614;2022-12-18T10:25:15;-2.20;99.90
20442;DHT22;10380;52.102;20.614;2022-12-18T10:27:43;-2.20;99.90
20442;DHT22;10380;52.102;20.614;2022-12-18T10:30:18;-2.30;99.90
20442;DHT22;10380;52.102;20.614;2022-12-18T10:32:46;-2.40;99.90
20442;DHT22;10380;52.102;20.614;2022-12-18T10:35:25;-2.50;99.90
20442;DHT22;10380;52.102;20.614;2022-12-18T10:43:43;-2.60;99.90
20442;DHT22;10380;52.102;20.614;2022-12-18T10:51:27;-2.50;99.90
20442;DHT22;10380;52.102;20.614;2022-12-18T10:56:28;-2.60;99.90
20442;DHT22;10380;52.102;20.614;2022-12-18T10:58:59;-2.60;99.90
20442;DHT22;10380;52.102;20.614;2022-12-18T11:01:27;-2.70;99.90
20442;DHT22;10380;52.102;20.614;2022-12-18T11:06:29;-2.70;99.90
20442;DHT22;10380;52.102;20.614;2022-12-18T11:09:19;-2.60;99.90
20442;DHT22;10380;52.102;20.614;2022-12-18T11:11:54;-2.50;99.90
20442;DHT22;10380;52.102;20.614;2022-12-18T11:14:24;-2.50;99.90
20442;DHT22;10380;52.102;20.614;2022-12-18T11:16:52;-2.50;99.90
20442;DHT22;10380;52.102;20.614;2022-12-18T11:19:42;-2.40;99.90
20442;DHT22;10380;52.102;20.614;2022-12-18T11:22:23;-2.30;99.90
20442;DHT22;10380;52.102;20.614;2022-12-18T11:24:59;-2.30;99.90
20442;DHT22;10380;52.102;20.614;2022-12-18T11:36:43;-2.30;99.90
20442;DHT22;10380;52.102;20.614;2022-12-18T11:41:56;-2.50;99.90
20442;DHT22;10380;52.102;20.614;2022-12-18T11:44:50;-2.60;99.90
20442;DHT22;10380;52.102;20.614;2022-12-18T11:50:24;-2.70;99.90
20442;DHT22;10380;52.102;20.614;2022-12-18T11:52:52;-2.80;99.90
20442;DHT22;10380;52.102;20.614;2022-12-18T11:58:50;-2.80;99.90
20442;DHT22;10380;52.102;20.614;2022-12-18T12:19:06;-2.50;99.90
20442;DHT22;10380;52.102;20.614;2022-12-18T12:21:41;-2.50;99.90
20442;DHT22;10380;52.102;20.614;2022-12-18T12:32:40;-2.50;99.90
20442;DHT22;10380;52.102;20.614;2022-12-18T12:40:28;-2.40;99.90
20442;DHT22;10380;52.102;20.614;2022-12-18T12:43:24;-2.30;99.90
20442;DHT22;10380;52.102;20.614;2022-12-18T12:46:00;-2.40;99.90
20442;DHT22;10380;52.102;20.614;2022-12-18T12:51:03;-2.40;99.90
20442;DHT22;10380;52.102;20.614;2022-12-18T12:53:36;-2.40;99.90
20442;DHT22;10380;52.102;20.614;2022-12-18T12:56:06;-2.40;99.90
20442;DHT22;10380;52.102;20.614;2022-12-18T12:58:45;-2.40;99.90
20442;DHT22;10380;52.102;20.614;2022-12-18T13:01:30;-2.40;99.90
20442;DHT22;10380;52.102;20.614;2022-12-18T13:09:20;-2.30;99.90
20442;DHT22;10380;52.102;20.614;2022-12-18T13:11:47;-2.30;99.90
20442;DHT22;10380;52.102;20.614;2022-12-18T13:14:38;-2.30;99.90
20442;DHT22;10380;52.102;20.614;2022-12-18T13:17:17;-2.40;99.90
20442;DHT22;10380;52.102;20.614;2022-12-18T13:19:44;-2.40;99.90
20442;DHT22;10380;52.102;20.614;2022-12-18T13:22:23;-2.50;99.90
20442;DHT22;10380;52.102;20.614;2022-12-18T13:24:50;-2.50;99.90
20442;DHT22;10380;52.102;20.614;2022-12-18T13:41:12;-2.70;99.90
20442;DHT22;10380;52.102;20.614;2022-12-18T13:44:09;-2.70;99.90
20442;DHT22;10380;52.102;20.614;2022-12-18T13:46:48;-2.70;99.90
20442;DHT22;10380;52.102;20.614;2022-12-18T13:51:48;-2.80;99.90
20442;DHT22;10380;52.102;20.614;2022-12-18T13:54:50;-2.80;99.90
20442;DHT22;10380;52.102;20.614;2022-12-18T14:02:46;-2.90;99.90
20442;DHT22;10380;52.102;20.614;2022-12-18T14:07:53;-2.90;99.90
20442;DHT22;10380;52.102;20.614;2022-12-18T14:10:22;-3.00;99.90
20442;DHT22;10380;52.102;20.614;2022-12-18T14:13:15;-3.00;99.90
20442;DHT22;10380;52.102;20.614;2022-12-18T14:15:45;-3.00;99.90
20442;DHT22;10380;52.102;20.614;2022-12-18T14:20:49;-3.00;99.90
20442;DHT22;10380;52.102;20.614;2022-12-18T14:23:36;-3.00;99.90
20442;DHT22;10380;52.102;20.614;2022-12-18T14:26:26;-3.00;99.90
20442;DHT22;10380;52.102;20.614;2022-12-18T14:29:00;-3.10;99.90
20442;DHT22;10380;52.102;20.614;2022-12-18T14:31:29;-3.10;99.90
20442;DHT22;10380;52.102;20.614;2022-12-18T14:33:57;-3.10;99.90
20442;DHT22;10380;52.102;20.614;2022-12-18T14:36:26;-3.10;99.90
20442;DHT22;10380;52.102;20.614;2022-12-18T14:38:58;-3.10;99.90
20442;DHT22;10380;52.102;20.614;2022-12-18T14:41:26;-3.20;99.90
20442;DHT22;10380;52.102;20.614;2022-12-18T14:43:54;-3.20;99.90
20442;DHT22;10380;52.102;20.614;2022-12-18T14:46:42;-3.20;99.90
20442;DHT22;10380;52.102;20.614;2022-12-18T14:49:33;-3.20;99.90
20442;DHT22;10380;52.102;20.614;2022-12-18T14:52:05;-3.30;99.90
20442;DHT22;10380;52.102;20.614;2022-12-18T14:54:35;-3.30;99.90
20442;DHT22;10380;52.102;20.614;2022-12-18T14:59:48;-3.30;99.90
20442;DHT22;10380;52.102;20.614;2022-12-18T15:02:23;-3.30;99.90
20442;DHT22;10380;52.102;20.614;2022-12-18T15:05:05;-3.30;99.90
20442;DHT22;10380;52.102;20.614;2022-12-18T15:07:52;-3.30;99.90
20442;DHT22;10380;52.102;20.614;2022-12-18T15:10:20;-3.30;99.90
20442;DHT22;10380;52.102;20.614;2022-12-18T15:13:07;-3.30;99.90
20442;DHT22;10380;52.102;20.614;2022-12-18T15:20:45;-3.40;99.90
20442;DHT22;10380;52.102;20.614;2022-12-18T15:28:45;-3.50;99.90
20442;DHT22;10380;52.102;20.614;2022-12-18T15:33:46;-3.60;99.90
20442;DHT22;10380;52.102;20.614;2022-12-18T15:36:26;-3.60;99.90
20442;DHT22;10380;52.102;20.614;2022-12-18T15:38:54;-3.60;99.90
20442;DHT22;10380;52.102;20.614;2022-12-18T15:41:35;-3.70;99.90
20442;DHT22;10380;52.102;20.614;2022-12-18T15:44:03;-3.70;99.90
20442;DHT22;10380;52.102;20.614;2022-12-18T15:46:42;-3.70;99.90
20442;DHT22;10380;52.102;20.614;2022-12-18T15:49:08;-3.80;99.90
20442;DHT22;10380;52.102;20.614;2022-12-18T15:51:37;-3.80;99.90
20442;DHT22;10380;52.102;20.614;2022-12-18T15:54:10;-3.80;99.90
20442;DHT22;10380;52.102;20.614;2022-12-18T15:56:38;-3.80;99.90
20442;DHT22;10380;52.102;20.614;2022-12-18T15:59:24;-3.80;99.90
20442;DHT22;10380;52.102;20.614;2022-12-18T16:01:51;-3.80;99.90
20442;DHT22;10380;52.102;20.614;2022-12-18T16:04:21;-3.90;99.90
20442;DHT22;10380;52.102;20.614;2022-12-18T16:06:50;-3.80;99.90
20442;DHT22;10380;52.102;20.614;2022-12-18T16:09:38;-3.80;99.90
20442;DHT22;10380;52.102;20.614;2022-12-18T16:12:06;-3.80;99.90
20442;DHT22;10380;52.102;20.614;2022-12-18T16:14:33;-3.80;99.90
20442;DHT22;10380;52.102;20.614;2022-12-18T16:17:02;-3.80;99.90
20442;DHT22;10380;52.102;20.614;2022-12-18T16:19:30;-3.80;99.90
20442;DHT22;10380;52.102;20.614;2022-12-18T16:21:58;-3.90;99.90
20442;DHT22;10380;52.102;20.614;2022-12-18T16:24:30;-3.90;99.90
20442;DHT22;10380;52.102;20.614;2022-12-18T16:26:58;-3.90;99.90
20442;DHT22;10380;52.102;20.614;2022-12-18T16:29:27;-4.00;99.90
20442;DHT22;10380;52.102;20.614;2022-12-18T16:31:58;-4.00;99.90
20442;DHT22;10380;52.102;20.614;2022-12-18T16:34:27;-4.00;99.90
20442;DHT22;10380;52.102;20.614;2022-12-18T16:36:57;-4.10;99.90
20442;DHT22;10380;52.102;20.614;2022-12-18T16:39:32;-4.00;99.90
20442;DHT22;10380;52.102;20.614;2022-12-18T16:42:01;-4.10;99.90
20442;DHT22;10380;52.102;20.614;2022-12-18T16:44:32;-4.10;99.90
20442;DHT22;10380;52.102;20.614;2022-12-18T16:46:59;-4.10;99.90
20442;DHT22;10380;52.102;20.614;2022-12-18T16:49:29;-4.10;99.90
20442;DHT22;10380;52.102;20.614;2022-12-18T16:51:56;-4.10;99.90
20442;DHT22;10380;52.102;20.614;2022-12-18T16:54:23;-4.10;99.90
20442;DHT22;10380;52.102;20.614;2022-12-18T16:56:50;-4.10;99.90
20442;DHT22;10380;52.102;20.614;2022-12-18T16:59:18;-4.10;99.90
20442;DHT22;10380;52.102;20.614;2022-12-18T17:01:45;-4.10;99.90
20442;DHT22;10380;52.102;20.614;2022-12-18T17:04:13;-4.10;99.90
20442;DHT22;10380;52.102;20.614;2022-12-18T17:06:42;-4.20;99.90
20442;DHT22;10380;52.102;20.614;2022-12-18T17:09:14;-4.20;99.90
20442;DHT22;10380;52.102;20.614;2022-12-18T17:11:44;-4.20;99.90
20442;DHT22;10380;52.102;20.614;2022-12-18T17:14:14;-4.20;99.90
20442;DHT22;10380;52.102;20.614;2022-12-18T17:16:41;-4.30;99.90
20442;DHT22;10380;52.102;20.614;2022-12-18T17:19:09;-4.30;99.90
20442;DHT22;10380;52.102;20.614;2022-12-18T17:21:43;-4.40;99.90
20442;DHT22;10380;52.102;20.614;2022-12-18T17:24:10;-4.50;99.90
20442;DHT22;10380;52.102;20.614;2022-12-18T17:26:38;-4.60;99.90
20442;DHT22;10380;52.102;20.614;2022-12-18T17:29:05;-4.60;99.90
20442;DHT22;10380;52.102;20.614;2022-12-18T17:31:33;-4.60;99.90
20442;DHT22;10380;52.102;20.614;2022-12-18T17:34:03;-4.70;99.90
20442;DHT22;10380;52.102;20.614;2022-12-18T17:36:30;-4.70;99.90
20442;DHT22;10380;52.102;20.614;2022-12-18T17:39:00;-4.70;99.90
20442;DHT22;10380;52.102;20.614;2022-12-18T17:41:28;-4.70;99.90
20442;DHT22;10380;52.102;20.614;2022-12-18T17:44:01;-4.60;99.90
20442;DHT22;10380;52.102;20.614;2022-12-18T17:46:29;-4.60;99.90
20442;DHT22;10380;52.102;20.614;2022-12-18T17:48:57;-4.60;99.90
20442;DHT22;10380;52.102;20.614;2022-12-18T17:51:25;-4.50;99.90
20442;DHT22;10380;52.102;20.614;2022-12-18T17:53:52;-4.50;99.90
20442;DHT22;10380;52.102;20.614;2022-12-18T17:56:21;-4.50;99.90
20442;DHT22;10380;52.102;20.614;2022-12-18T17:58:49;-4.50;99.90
20442;DHT22;10380;52.102;20.614;2022-12-18T18:01:19;-4.50;99.90
20442;DHT22;10380;52.102;20.614;2022-12-18T18:03:46;-4.50;99.90
20442;DHT22;10380;52.102;20.614;2022-12-18T18:06:22;-4.50;99.90
20442;DHT22;10380;52.102;20.614;2022-12-18T18:08:50;-4.60;99.90
20442;DHT22;10380;52.102;20.614;2022-12-18T18:11:19;-4.60;99.90
20442;DHT22;10380;52.102;20.614;2022-12-18T18:14:16;-4.70;99.90
20442;DHT22;10380;52.102;20.614;2022-12-18T18:16:49;-4.80;99.90
20442;DHT22;10380;52.102;20.614;2022-12-18T18:19:21;-4.90;99.90
20442;DHT22;10380;52.102;20.614;2022-12-18T18:21:50;-5.00;99.90
20442;DHT22;10380;52.102;20.614;2022-12-18T18:24:21;-5.00;99.90
20442;DHT22;10380;52.102;20.614;2022-12-18T18:26:49;-5.10;99.90
20442;DHT22;10380;52.102;20.614;2022-12-18T18:29:19;-5.10;99.90